sensor_id;sensor_type;location;lat;lon;timestamp;temperature;humidity
3466;DHT22;1747;48.884;9.160;2022-09-17T00:01:36;12.70;99.90
3466;DHT22;1747;48.884;9.160;2022-09-17T00:04:03;12.60;99.90
3466;DHT22;1747;48.884;9.160;2022-09-17T00:06:32;12.50;99.90
3466;DHT22;1747;48.884;9.160;2022-09-17T00:09:00;12.50;99.90
3466;DHT22;1747;48.884;9.160;2022-09-17T00:11:29;12.60;99.90
3466;DHT22;1747;48.884;9.160;2022-09-17T00:13:59;12.50;99.90
3466;DHT22;1747;48.884;9.160;2022-09-17T00:16:29;12.60;99.90
3466;DHT22;1747;48.884;9.160;2022-09-17T00:18:57;12.60;99.90
3466;DHT22;1747;48.884;9.160;2022-09-17T00:21:25;12.60;99.90
3466;DHT22;1747;48.884;9.160;2022-09-17T00:23:53;12.60;99.90
3466;DHT22;1747;48.884;9.160;2022-09-17T00:26:20;12.60;99.90
3466;DHT22;1747;48.884;9.160;2022-09-17T00:28:49;12.50;99.90
3466;DHT22;1747;48.884;9.160;2022-09-17T00:31:16;12.60;99.90
3466;DHT22;1747;48.884;9.160;2022-09-17T00:33:44;12.60;99.90
3466;DHT22;1747;48.884;9.160;2022-09-17T00:36:11;12.60;99.90
3466;DHT22;1747;48.884;9.160;2022-09-17T00:38:38;12.40;99.90
3466;DHT22;1747;48.884;9.160;2022-09-17T00:41:06;12.50;99.90
3466;DHT22;1747;48.884;9.160;2022-09-17T00:43:37;12.40;99.90
3466;DHT22;1747;48.884;9.160;2022-09-17T00:46:11;12.50;99.90
3466;DHT22;1747;48.884;9.160;2022-09-17T00:48:44;12.50;99.90
3466;DHT22;1747;48.884;9.160;2022-09-17T00:51:16;12.40;99.90
3466;DHT22;1747;48.884;9.160;2022-09-17T00:53:45;12.30;99.90
3466;DHT22;1747;48.884;9.160;2022-09-17T00:56:17;12.30;99.90
3466;DHT22;1747;48.884;9.160;2022-09-17T00:58:48;12.30;99.90
3466;DHT22;1747;48.884;9.160;2022-09-17T01:01:16;12.30;99.90
3466;DHT22;1747;48.884;9.160;2022-09-17T01:03:44;12.30;99.90
3466;DHT22;1747;48.884;9.160;2022-09-17T01:06:16;12.30;99.90
3466;DHT22;1747;48.884;9.160;2022-09-17T01:09:00;12.30;99.90
3466;DHT22;1747;48.884;9.160;2022-09-17T01:11:44;12.20;99.90
3466;DHT22;1747;48.884;9.160;2022-09-17T01:14:20;12.20;99.90
3466;DHT22;1747;48.884;9.160;2022-09-17T01:16:56;12.20;99.90
3466;DHT22;1747;48.884;9.160;2022-09-17T01:19:54;12.20;99.90
3466;DHT22;1747;48.884;9.160;2022-09-17T01:22:31;12.20;99.90
3466;DHT22;1747;48.884;9.160;2022-09-17T01:25:19;12.30;99.90
3466;DHT22;1747;48.884;9.160;2022-09-17T01:28:13;12.20;99.90
3466;DHT22;1747;48.884;9.160;2022-09-17T01:31:01;12.20;99.90
3466;DHT22;1747;48.884;9.160;2022-09-17T01:33:36;12.30;99.90
3466;DHT22;1747;48.884;9.160;2022-09-17T01:36:13;12.30;99.90
3466;DHT22;1747;48.884;9.160;2022-09-17T01:38:44;12.10;99.90
3466;DHT22;1747;48.884;9.160;2022-09-17T01:41:20;12.10;99.90
3466;DHT22;1747;48.884;9.160;2022-09-17T01:43:57;12.00;99.90
3466;DHT22;1747;48.884;9.160;2022-09-17T01:46:29;11.90;99.90
3466;DHT22;1747;48.884;9.160;2022-09-17T01:48:59;12.00;99.90
3466;DHT22;1747;48.884;9.160;2022-09-17T01:51:30;12.20;99.90
3466;DHT22;1747;48.884;9.160;2022-09-17T01:54:03;12.20;99.90
3466;DHT22;1747;48.884;9.160;2022-09-17T01:56:35;12.30;99.90
3466;DHT22;1747;48.884;9.160;2022-09-17T01:59:07;12.40;99.90
3466;DHT22;1747;48.884;9.160;2022-09-17T02:01:37;12.20;99.90
3466;DHT22;1747;48.884;9.160;2022-09-17T02:04:08;12.20;99.90
3466;DHT22;1747;48.884;9.160;2022-09-17T02:06:38;12.20;99.90
3466;DHT22;1747;48.884;9.160;2022-09-17T02:09:10;12.20;99.90
3466;DHT22;1747;48.884;9.160;2022-09-17T02:11:41;12.30;99.90
3466;DHT22;1747;48.884;9.160;2022-09-17T02:14:13;12.30;99.90
3466;DHT22;1747;48.884;9.160;2022-09-17T02:16:45;12.20;99.90
3466;DHT22;1747;48.884;9.160;2022-09-17T02:19:19;12.20;99.90
3466;DHT22;1747;48.884;9.160;2022-09-17T02:21:52;12.20;99.90
3466;DHT22;1747;48.884;9.160;2022-09-17T02:24:23;12.20;99.90
3466;DHT22;1747;48.884;9.160;2022-09-17T02:27:04;12.10;99.90
3466;DHT22;1747;48.884;9.160;2022-09-17T02:29:34;12.10;99.90
3466;DHT22;1747;48.884;9.160;2022-09-17T02:32:04;12.20;99.90
3466;DHT22;1747;48.884;9.160;2022-09-17T02:34:31;12.10;99.90
3466;DHT22;1747;48.884;9.160;2022-09-17T02:36:58;12.10;99.90
3466;DHT22;1747;48.884;9.160;2022-09-17T02:39:26;12.10;99.90
3466;DHT22;1747;48.884;9.160;2022-09-17T02:42:01;12.10;99.90
3466;DHT22;1747;48.884;9.160;2022-09-17T02:44:36;12.00;99.90
3466;DHT22;1747;48.884;9.160;2022-09-17T02:50:14;12.10;99.90
3466;DHT22;1747;48.884;9.160;2022-09-17T02:52:54;12.00;99.90
3466;DHT22;1747;48.884;9.160;2022-09-17T02:55:29;12.00;99.90
3466;DHT22;1747;48.884;9.160;2022-09-17T02:58:03;12.00;99.90
3466;DHT22;1747;48.884;9.160;2022-09-17T03:00:31;12.00;99.90
3466;DHT22;1747;48.884;9.160;2022-09-17T03:03:06;11.90;99.90
3466;DHT22;1747;48.884;9.160;2022-09-17T03:05:35;12.00;99.90
3466;DHT22;1747;48.884;9.160;2022-09-17T03:08:06;12.00;99.90
3466;DHT22;1747;48.884;9.160;2022-09-17T03:10:33;12.00;99.90
3466;DHT22;1747;48.884;9.160;2022-09-17T03:13:00;11.90;99.90
3466;DHT22;1747;48.884;9.160;2022-09-17T03:15:26;11.90;99.90
3466;DHT22;1747;48.884;9.160;2022-09-17T03:17:53;11.90;99.90
3466;DHT22;1747;48.884;9.160;2022-09-17T03:20:21;11.90;99.90
3466;DHT22;1747;48.884;9.160;2022-09-17T03:22:48;11.90;99.90
3466;DHT22;1747;48.884;9.160;2022-09-17T03:25:16;11.70;99.90
3466;DHT22;1747;48.884;9.160;2022-09-17T03:27:43;11.60;99.90
3466;DHT22;1747;48.884;9.160;2022-09-17T03:30:10;11.70;99.90
3466;DHT22;1747;48.884;9.160;2022-09-17T03:32:37;11.70;99.90
3466;DHT22;1747;48.884;9.160;2022-09-17T03:35:04;11.70;99.90
3466;DHT22;1747;48.884;9.160;2022-09-17T03:37:32;11.80;99.90
3466;DHT22;1747;48.884;9.160;2022-09-17T03:39:59;11.70;99.90
3466;DHT22;1747;48.884;9.160;2022-09-17T03:42:26;11.60;99.90
3466;DHT22;1747;48.884;9.160;2022-09-17T03:44:52;11.50;99.90
3466;DHT22;1747;48.884;9.160;2022-09-17T03:47:19;11.50;99.90
3466;DHT22;1747;48.884;9.160;2022-09-17T03:49:46;11.50;99.90
3466;DHT22;1747;48.884;9.160;2022-09-17T03:52:13;11.40;99.90
3466;DHT22;1747;48.884;9.160;2022-09-17T03:54:41;11.40;99.90
3466;DHT22;1747;48.884;9.160;2022-09-17T03:57:08;11.40;99.90
3466;DHT22;1747;48.884;9.160;2022-09-17T03:59:34;11.30;99.90
3466;DHT22;1747;48.884;9.160;2022-09-17T04:02:01;11.40;99.90
3466;DHT22;1747;48.884;9.160;2022-09-17T04:04:28;11.40;99.90
3466;DHT22;1747;48.884;9.160;2022-09-17T04:06:55;11.40;99.90
3466;DHT22;1747;48.884;9.160;2022-09-17T04:09:22;11.40;99.90
3466;DHT22;1747;48.884;9.160;2022-09-17T04:11:50;11.40;99.90
3466;DHT22;1747;48.884;9.160;2022-09-17T04:14:16;11.40;99.90
3466;DHT22;1747;48.884;9.160;2022-09-17T04:16:43;11.40;99.90
3466;DHT22;1747;48.884;9.160;2022-09-17T04:19:10;11.30;99.90
3466;DHT22;1747;48.884;9.160;2022-09-17T04:21:37;11.40;99.90
3466;DHT22;1747;48.884;9.160;2022-09-17T04:24:04;11.30;99.90
3466;DHT22;1747;48.884;9.160;2022-09-17T04:26:31;11.40;99.90
3466;DHT22;1747;48.884;9.160;2022-09-17T04:28:59;11.40;99.90
3466;DHT22;1747;48.884;9.160;2022-09-17T04:31:26;11.30;99.90
3466;DHT22;1747;48.884;9.160;2022-09-17T04:33:53;11.30;99.90
3466;DHT22;1747;48.884;9.160;2022-09-17T04:36:20;11.20;99.90
3466;DHT22;1747;48.884;9.160;2022-09-17T04:38:47;11.30;99.90
3466;DHT22;1747;48.884;9.160;2022-09-17T04:41:14;11.30;99.90
3466;DHT22;1747;48.884;9.160;2022-09-17T04:43:41;11.40;99.90
3466;DHT22;1747;48.884;9.160;2022-09-17T04:46:09;11.40;99.90
3466;DHT22;1747;48.884;9.160;2022-09-17T04:48:36;11.50;99.90
3466;DHT22;1747;48.884;9.160;2022-09-17T04:51:03;11.60;99.90
3466;DHT22;1747;48.884;9.160;2022-09-17T04:53:30;11.60;99.90
3466;DHT22;1747;48.884;9.160;2022-09-17T04:55:57;11.50;99.90
3466;DHT22;1747;48.884;9.160;2022-09-17T04:58:23;11.60;99.90
3466;DHT22;1747;48.884;9.160;2022-09-17T05:00:50;11.60;99.90
3466;DHT22;1747;48.884;9.160;2022-09-17T05:03:18;11.60;99.90
3466;DHT22;1747;48.884;9.160;2022-09-17T05:05:45;11.50;99.90
3466;DHT22;1747;48.884;9.160;2022-09-17T05:08:12;11.50;99.90
3466;DHT22;1747;48.884;9.160;2022-09-17T05:10:39;11.60;99.90
3466;DHT22;1747;48.884;9.160;2022-09-17T05:13:05;11.50;99.90
3466;DHT22;1747;48.884;9.160;2022-09-17T05:15:32;11.50;99.90
3466;DHT22;1747;48.884;9.160;2022-09-17T05:17:59;11.40;99.90
3466;DHT22;1747;48.884;9.160;2022-09-17T05:20:27;11.30;99.90
3466;DHT22;1747;48.884;9.160;2022-09-17T05:22:54;11.30;99.90
3466;DHT22;1747;48.884;9.160;2022-09-17T05:25:22;11.40;99.90
3466;DHT22;1747;48.884;9.160;2022-09-17T05:27:49;11.30;99.90
3466;DHT22;1747;48.884;9.160;2022-09-17T05:30:16;11.30;99.90
3466;DHT22;1747;48.884;9.160;2022-09-17T05:32:43;11.40;99.90
3466;DHT22;1747;48.884;9.160;2022-09-17T05:35:11;11.40;99.90
3466;DHT22;1747;48.884;9.160;2022-09-17T05:37:39;11.40;99.90
3466;DHT22;1747;48.884;9.160;2022-09-17T05:40:07;11.40;99.90
3466;DHT22;1747;48.884;9.160;2022-09-17T05:42:34;11.40;99.90
3466;DHT22;1747;48.884;9.160;2022-09-17T05:45:01;11.30;99.90
3466;DHT22;1747;48.884;9.160;2022-09-17T05:47:29;11.40;99.90
3466;DHT22;1747;48.884;9.160;2022-09-17T05:49:56;11.30;99.90
3466;DHT22;1747;48.884;9.160;2022-09-17T05:52:25;11.30;99.90
3466;DHT22;1747;48.884;9.160;2022-09-17T05:54:54;11.40;99.90
3466;DHT22;1747;48.884;9.160;2022-09-17T05:57:20;11.50;99.90
3466;DHT22;1747;48.884;9.160;2022-09-17T05:59:47;11.50;99.90
3466;DHT22;1747;48.884;9.160;2022-09-17T06:02:14;11.60;99.90
3466;DHT22;1747;48.884;9.160;2022-09-17T06:04:41;11.60;99.90
3466;DHT22;1747;48.884;9.160;2022-09-17T06:07:07;11.60;99.90
3466;DHT22;1747;48.884;9.160;2022-09-17T06:09:34;11.60;99.90
3466;DHT22;1747;48.884;9.160;2022-09-17T06:12:04;11.60;99.90
3466;DHT22;1747;48.884;9.160;2022-09-17T06:14:31;11.60;99.90
3466;DHT22;1747;48.884;9.160;2022-09-17T06:16:57;11.60;99.90
3466;DHT22;1747;48.884;9.160;2022-09-17T06:19:24;11.60;99.90
3466;DHT22;1747;48.884;9.160;2022-09-17T06:21:51;11.50;99.90
3466;DHT22;1747;48.884;9.160;2022-09-17T06:24:18;11.60;99.90
3466;DHT22;1747;48.884;9.160;2022-09-17T06:26:45;11.50;99.90
3466;DHT22;1747;48.884;9.160;2022-09-17T06:29:13;11.60;99.90
3466;DHT22;1747;48.884;9.160;2022-09-17T06:31:40;11.60;99.90
3466;DHT22;1747;48.884;9.160;2022-09-17T06:34:09;11.70;99.90
3466;DHT22;1747;48.884;9.160;2022-09-17T06:36:36;11.80;99.90
3466;DHT22;1747;48.884;9.160;2022-09-17T06:39:03;11.80;99.90
3466;DHT22;1747;48.884;9.160;2022-09-17T06:41:30;11.80;99.90
3466;DHT22;1747;48.884;9.160;2022-09-17T06:43:57;11.90;99.90
3466;DHT22;1747;48.884;9.160;2022-09-17T06:46:27;11.90;99.90
3466;DHT22;1747;48.884;9.160;2022-09-17T06:48:54;11.80;99.90
3466;DHT22;1747;48.884;9.160;2022-09-17T06:51:20;11.90;99.90
3466;DHT22;1747;48.884;9.160;2022-09-17T06:53:48;11.90;99.90
3466;DHT22;1747;48.884;9.160;2022-09-17T06:56:14;11.90;99.90
3466;DHT22;1747;48.884;9.160;2022-09-17T06:58:42;11.80;99.90
3466;DHT22;1747;48.884;9.160;2022-09-17T07:01:09;11.80;99.90
3466;DHT22;1747;48.884;9.160;2022-09-17T07:03:38;11.70;99.90
3466;DHT22;1747;48.884;9.160;2022-09-17T07:06:08;11.70;99.90
3466;DHT22;1747;48.884;9.160;2022-09-17T07:08:35;11.80;99.90
3466;DHT22;1747;48.884;9.160;2022-09-17T07:11:02;11.80;99.90
3466;DHT22;1747;48.884;9.160;2022-09-17T07:13:29;11.50;99.90
3466;DHT22;1747;48.884;9.160;2022-09-17T07:15:57;11.50;99.90
3466;DHT22;1747;48.884;9.160;2022-09-17T07:18:24;11.50;99.90
3466;DHT22;1747;48.884;9.160;2022-09-17T07:20:53;11.50;99.90
3466;DHT22;1747;48.884;9.160;2022-09-17T07:23:21;11.50;99.90
3466;DHT22;1747;48.884;9.160;2022-09-17T07:25:52;11.40;99.90
3466;DHT22;1747;48.884;9.160;2022-09-17T07:28:19;11.40;99.90
3466;DHT22;1747;48.884;9.160;2022-09-17T07:30:47;11.50;99.90
3466;DHT22;1747;48.884;9.160;2022-09-17T07:33:14;11.50;99.90
3466;DHT22;1747;48.884;9.160;2022-09-17T07:35:41;11.40;99.90
3466;DHT22;1747;48.884;9.160;2022-09-17T07:38:09;11.50;99.90
3466;DHT22;1747;48.884;9.160;2022-09-17T07:40:36;11.60;99.90
3466;DHT22;1747;48.884;9.160;2022-09-17T07:43:03;11.60;99.90
3466;DHT22;1747;48.884;9.160;2022-09-17T07:45:29;11.70;99.90
3466;DHT22;1747;48.884;9.160;2022-09-17T07:47:56;11.60;99.90
3466;DHT22;1747;48.884;9.160;2022-09-17T07:50:23;11.50;99.90
3466;DHT22;1747;48.884;9.160;2022-09-17T07:52:50;11.50;99.90
3466;DHT22;1747;48.884;9.160;2022-09-17T07:55:18;11.60;99.90
3466;DHT22;1747;48.884;9.160;2022-09-17T07:57:50;11.60;99.90
3466;DHT22;1747;48.884;9.160;2022-09-17T08:00:17;11.70;99.90
3466;DHT22;1747;48.884;9.160;2022-09-17T08:02:44;11.80;99.90
3466;DHT22;1747;48.884;9.160;2022-09-17T08:05:11;11.90;99.90
3466;DHT22;1747;48.884;9.160;2022-09-17T08:07:37;12.00;99.90
3466;DHT22;1747;48.884;9.160;2022-09-17T08:10:05;12.00;99.90
3466;DHT22;1747;48.884;9.160;2022-09-17T08:12:33;12.10;99.90
3466;DHT22;1747;48.884;9.160;2022-09-17T08:15:00;12.20;99.90
3466;DHT22;1747;48.884;9.160;2022-09-17T08:17:27;12.20;99.90
3466;DHT22;1747;48.884;9.160;2022-09-17T08:19:53;12.30;99.90
3466;DHT22;1747;48.884;9.160;2022-09-17T08:22:20;12.30;99.90
3466;DHT22;1747;48.884;9.160;2022-09-17T08:24:47;12.30;99.90
3466;DHT22;1747;48.884;9.160;2022-09-17T08:27:14;12.50;99.90
3466;DHT22;1747;48.884;9.160;2022-09-17T08:29:42;12.60;99.90
3466;DHT22;1747;48.884;9.160;2022-09-17T08:32:09;12.60;99.90
3466;DHT22;1747;48.884;9.160;2022-09-17T08:34:36;12.50;99.90
3466;DHT22;1747;48.884;9.160;2022-09-17T08:37:03;12.60;99.90
3466;DHT22;1747;48.884;9.160;2022-09-17T08:39:30;12.60;99.90
3466;DHT22;1747;48.884;9.160;2022-09-17T08:42:04;12.70;99.90
3466;DHT22;1747;48.884;9.160;2022-09-17T08:44:39;12.80;99.90
3466;DHT22;1747;48.884;9.160;2022-09-17T08:47:14;13.00;99.90
3466;DHT22;1747;48.884;9.160;2022-09-17T08:49:47;13.20;99.90
3466;DHT22;1747;48.884;9.160;2022-09-17T08:52:39;13.30;99.90
3466;DHT22;1747;48.884;9.160;2022-09-17T08:55:20;13.40;99.90
3466;DHT22;1747;48.884;9.160;2022-09-17T08:57:53;13.60;99.90
3466;DHT22;1747;48.884;9.160;2022-09-17T09:00:24;13.70;99.90
3466;DHT22;1747;48.884;9.160;2022-09-17T09:03:05;13.70;99.90
3466;DHT22;1747;48.884;9.160;2022-09-17T09:05:42;13.70;99.90
3466;DHT22;1747;48.884;9.160;2022-09-17T09:08:15;13.60;99.90
3466;DHT22;1747;48.884;9.160;2022-09-17T09:10:46;13.60;99.90
3466;DHT22;1747;48.884;9.160;2022-09-17T09:13:18;13.40;99.90
3466;DHT22;1747;48.884;9.160;2022-09-17T09:15:49;13.50;99.90
3466;DHT22;1747;48.884;9.160;2022-09-17T09:18:20;13.50;99.90
3466;DHT22;1747;48.884;9.160;2022-09-17T09:20:49;13.60;99.90
3466;DHT22;1747;48.884;9.160;2022-09-17T09:23:19;13.70;99.90
3466;DHT22;1747;48.884;9.160;2022-09-17T09:25:56;13.80;99.90
3466;DHT22;1747;48.884;9.160;2022-09-17T09:28:41;13.80;99.90
3466;DHT22;1747;48.884;9.160;2022-09-17T09:31:31;13.90;99.90
3466;DHT22;1747;48.884;9.160;2022-09-17T09:34:02;13.70;99.90
3466;DHT22;1747;48.884;9.160;2022-09-17T09:36:31;13.60;99.90
3466;DHT22;1747;48.884;9.160;2022-09-17T09:39:02;13.80;99.90
3466;DHT22;1747;48.884;9.160;2022-09-17T09:41:33;13.80;99.90
3466;DHT22;1747;48.884;9.160;2022-09-17T09:44:04;13.80;99.90
3466;DHT22;1747;48.884;9.160;2022-09-17T09:46:43;13.80;99.90
3466;DHT22;1747;48.884;9.160;2022-09-17T09:49:21;13.80;99.90
3466;DHT22;1747;48.884;9.160;2022-09-17T09:52:01;13.90;99.90
3466;DHT22;1747;48.884;9.160;2022-09-17T09:54:46;13.90;99.90
3466;DHT22;1747;48.884;9.160;2022-09-17T09:57:17;14.10;99.90
3466;DHT22;1747;48.884;9.160;2022-09-17T09:59:46;14.10;99.90
3466;DHT22;1747;48.884;9.160;2022-09-17T10:02:14;14.10;99.90
3466;DHT22;1747;48.884;9.160;2022-09-17T10:04:45;14.00;99.90
3466;DHT22;1747;48.884;9.160;2022-09-17T10:07:11;13.90;99.90
3466;DHT22;1747;48.884;9.160;2022-09-17T10:09:44;13.80;99.90
3466;DHT22;1747;48.884;9.160;2022-09-17T10:12:16;13.80;99.90
3466;DHT22;1747;48.884;9.160;2022-09-17T10:14:45;13.70;99.90
3466;DHT22;1747;48.884;9.160;2022-09-17T10:17:19;13.60;99.90
3466;DHT22;1747;48.884;9.160;2022-09-17T10:20:12;13.70;99.90
3466;DHT22;1747;48.884;9.160;2022-09-17T10:22:40;14.00;99.90
3466;DHT22;1747;48.884;9.160;2022-09-17T10:25:27;14.30;99.90
3466;DHT22;1747;48.884;9.160;2022-09-17T10:27:56;14.50;99.90
3466;DHT22;1747;48.884;9.160;2022-09-17T10:30:24;14.70;99.90
3466;DHT22;1747;48.884;9.160;2022-09-17T10:33:15;14.80;99.90
3466;DHT22;1747;48.884;9.160;2022-09-17T10:35:59;14.90;99.90
3466;DHT22;1747;48.884;9.160;2022-09-17T10:38:36;15.10;99.90
3466;DHT22;1747;48.884;9.160;2022-09-17T10:41:24;15.10;99.90
3466;DHT22;1747;48.884;9.160;2022-09-17T10:43:55;15.20;99.90
3466;DHT22;1747;48.884;9.160;2022-09-17T10:46:25;15.20;99.90
3466;DHT22;1747;48.884;9.160;2022-09-17T10:48:58;15.30;99.90
3466;DHT22;1747;48.884;9.160;2022-09-17T10:51:33;15.30;99.90
3466;DHT22;1747;48.884;9.160;2022-09-17T10:54:24;15.50;99.90
3466;DHT22;1747;48.884;9.160;2022-09-17T10:59:46;15.80;99.90
3466;DHT22;1747;48.884;9.160;2022-09-17T11:05:33;15.90;99.90
3466;DHT22;1747;48.884;9.160;2022-09-17T11:08:08;16.00;99.90
3466;DHT22;1747;48.884;9.160;2022-09-17T11:10:44;16.00;99.90
3466;DHT22;1747;48.884;9.160;2022-09-17T11:13:26;15.90;99.90
3466;DHT22;1747;48.884;9.160;2022-09-17T11:16:09;16.20;99.90
3466;DHT22;1747;48.884;9.160;2022-09-17T11:18:39;16.10;99.90
3466;DHT22;1747;48.884;9.160;2022-09-17T11:21:23;16.10;99.90
3466;DHT22;1747;48.884;9.160;2022-09-17T11:24:39;16.10;99.90
3466;DHT22;1747;48.884;9.160;2022-09-17T11:27:21;16.20;99.90
3466;DHT22;1747;48.884;9.160;2022-09-17T11:30:02;16.20;99.90
3466;DHT22;1747;48.884;9.160;2022-09-17T11:35:31;16.30;99.90
3466;DHT22;1747;48.884;9.160;2022-09-17T11:38:05;16.50;99.90
3466;DHT22;1747;48.884;9.160;2022-09-17T11:40:39;16.70;99.90
3466;DHT22;1747;48.884;9.160;2022-09-17T11:43:14;16.80;99.90
3466;DHT22;1747;48.884;9.160;2022-09-17T11:45:51;16.90;99.90
3466;DHT22;1747;48.884;9.160;2022-09-17T11:48:20;16.70;99.90
3466;DHT22;1747;48.884;9.160;2022-09-17T11:50:52;16.40;99.90
3466;DHT22;1747;48.884;9.160;2022-09-17T11:53:24;16.40;99.90
3466;DHT22;1747;48.884;9.160;2022-09-17T11:56:12;16.20;99.90
3466;DHT22;1747;48.884;9.160;2022-09-17T11:58:45;15.80;99.90
3466;DHT22;1747;48.884;9.160;2022-09-17T12:01:18;15.60;99.90
3466;DHT22;1747;48.884;9.160;2022-09-17T12:03:51;15.50;99.90
3466;DHT22;1747;48.884;9.160;2022-09-17T12:06:22;15.50;99.90
3466;DHT22;1747;48.884;9.160;2022-09-17T12:08:55;15.40;99.90
3466;DHT22;1747;48.884;9.160;2022-09-17T12:11:32;15.50;99.90
3466;DHT22;1747;48.884;9.160;2022-09-17T12:14:02;15.60;99.90
3466;DHT22;1747;48.884;9.160;2022-09-17T12:16:34;15.80;99.90
3466;DHT22;1747;48.884;9.160;2022-09-17T12:19:07;15.80;99.90
3466;DHT22;1747;48.884;9.160;2022-09-17T12:21:39;15.90;99.90
3466;DHT22;1747;48.884;9.160;2022-09-17T12:24:13;15.70;99.90
3466;DHT22;1747;48.884;9.160;2022-09-17T12:27:01;15.70;99.90
3466;DHT22;1747;48.884;9.160;2022-09-17T12:29:46;16.00;99.90
3466;DHT22;1747;48.884;9.160;2022-09-17T12:32:29;16.50;99.90
3466;DHT22;1747;48.884;9.160;2022-09-17T12:35:02;16.80;99.90
3466;DHT22;1747;48.884;9.160;2022-09-17T12:37:36;16.80;99.90
3466;DHT22;1747;48.884;9.160;2022-09-17T12:40:19;16.70;99.90
3466;DHT22;1747;48.884;9.160;2022-09-17T12:42:57;16.50;99.90
3466;DHT22;1747;48.884;9.160;2022-09-17T12:45:40;16.10;99.90
3466;DHT22;1747;48.884;9.160;2022-09-17T12:51:22;15.80;99.90
3466;DHT22;1747;48.884;9.160;2022-09-17T12:53:58;16.40;99.90
3466;DHT22;1747;48.884;9.160;2022-09-17T12:56:38;17.00;99.90
3466;DHT22;1747;48.884;9.160;2022-09-17T12:59:15;17.30;99.90
3466;DHT22;1747;48.884;9.160;2022-09-17T13:01:48;17.20;99.90
3466;DHT22;1747;48.884;9.160;2022-09-17T13:04:47;16.80;99.90
3466;DHT22;1747;48.884;9.160;2022-09-17T13:10:39;16.40;99.90
3466;DHT22;1747;48.884;9.160;2022-09-17T13:13:21;16.50;99.90
3466;DHT22;1747;48.884;9.160;2022-09-17T13:15:59;16.40;99.90
3466;DHT22;1747;48.884;9.160;2022-09-17T13:18:35;16.50;99.90
3466;DHT22;1747;48.884;9.160;2022-09-17T13:21:09;17.00;99.90
3466;DHT22;1747;48.884;9.160;2022-09-17T13:23:41;17.20;99.90
3466;DHT22;1747;48.884;9.160;2022-09-17T13:26:11;17.20;99.90
3466;DHT22;1747;48.884;9.160;2022-09-17T13:28:43;17.20;99.90
3466;DHT22;1747;48.884;9.160;2022-09-17T13:31:12;17.00;99.90
3466;DHT22;1747;48.884;9.160;2022-09-17T13:33:51;16.80;99.90
3466;DHT22;1747;48.884;9.160;2022-09-17T13:36:44;16.70;99.90
3466;DHT22;1747;48.884;9.160;2022-09-17T13:39:39;16.90;99.90
3466;DHT22;1747;48.884;9.160;2022-09-17T13:42:18;16.80;99.90
3466;DHT22;1747;48.884;9.160;2022-09-17T13:44:49;16.90;99.90
3466;DHT22;1747;48.884;9.160;2022-09-17T13:47:22;17.10;99.90
3466;DHT22;1747;48.884;9.160;2022-09-17T13:49:54;17.20;99.90
3466;DHT22;1747;48.884;9.160;2022-09-17T13:52:34;17.00;99.90
3466;DHT22;1747;48.884;9.160;2022-09-17T13:55:02;16.90;99.90
3466;DHT22;1747;48.884;9.160;2022-09-17T13:57:31;16.80;99.90
3466;DHT22;1747;48.884;9.160;2022-09-17T14:00:00;16.80;99.90
3466;DHT22;1747;48.884;9.160;2022-09-17T14:02:33;16.90;99.90
3466;DHT22;1747;48.884;9.160;2022-09-17T14:05:24;16.80;99.90
3466;DHT22;1747;48.884;9.160;2022-09-17T14:10:57;16.70;99.90
3466;DHT22;1747;48.884;9.160;2022-09-17T14:13:37;16.60;99.90
3466;DHT22;1747;48.884;9.160;2022-09-17T14:19:27;16.70;99.90
3466;DHT22;1747;48.884;9.160;2022-09-17T14:21:58;17.10;99.90
3466;DHT22;1747;48.884;9.160;2022-09-17T14:24:35;17.90;99.90
3466;DHT22;1747;48.884;9.160;2022-09-17T14:27:14;18.40;99.90
3466;DHT22;1747;48.884;9.160;2022-09-17T14:30:05;18.70;99.90
3466;DHT22;1747;48.884;9.160;2022-09-17T14:32:43;19.20;99.70
3466;DHT22;1747;48.884;9.160;2022-09-17T14:35:17;19.80;98.70
3466;DHT22;1747;48.884;9.160;2022-09-17T14:37:48;20.50;97.90
3466;DHT22;1747;48.884;9.160;2022-09-17T14:40:18;20.60;97.10
3466;DHT22;1747;48.884;9.160;2022-09-17T14:42:51;20.30;97.00
3466;DHT22;1747;48.884;9.160;2022-09-17T14:45:24;19.50;98.00
3466;DHT22;1747;48.884;9.160;2022-09-17T14:48:18;19.10;98.80
3466;DHT22;1747;48.884;9.160;2022-09-17T14:50:47;18.80;99.30
3466;DHT22;1747;48.884;9.160;2022-09-17T14:53:16;18.40;99.90
3466;DHT22;1747;48.884;9.160;2022-09-17T14:55:45;18.30;99.90
3466;DHT22;1747;48.884;9.160;2022-09-17T14:58:29;18.10;99.90
3466;DHT22;1747;48.884;9.160;2022-09-17T15:00:56;17.60;99.90
3466;DHT22;1747;48.884;9.160;2022-09-17T15:03:24;17.40;99.90
3466;DHT22;1747;48.884;9.160;2022-09-17T15:05:52;17.60;99.90
3466;DHT22;1747;48.884;9.160;2022-09-17T15:08:21;17.90;99.90
3466;DHT22;1747;48.884;9.160;2022-09-17T15:10:51;18.50;99.90
3466;DHT22;1747;48.884;9.160;2022-09-17T15:13:20;18.60;99.90
3466;DHT22;1747;48.884;9.160;2022-09-17T15:16:00;18.30;99.90
3466;DHT22;1747;48.884;9.160;2022-09-17T15:18:35;17.80;99.90
3466;DHT22;1747;48.884;9.160;2022-09-17T15:21:09;17.60;99.90
3466;DHT22;1747;48.884;9.160;2022-09-17T15:23:38;17.20;99.90
3466;DHT22;1747;48.884;9.160;2022-09-17T15:26:05;16.90;99.90
3466;DHT22;1747;48.884;9.160;2022-09-17T15:28:35;16.80;99.90
3466;DHT22;1747;48.884;9.160;2022-09-17T15:31:04;16.50;99.90
3466;DHT22;1747;48.884;9.160;2022-09-17T15:33:32;16.30;99.90
3466;DHT22;1747;48.884;9.160;2022-09-17T15:36:08;16.10;99.90
3466;DHT22;1747;48.884;9.160;2022-09-17T15:38:38;16.10;99.90
3466;DHT22;1747;48.884;9.160;2022-09-17T15:41:28;16.20;99.90
3466;DHT22;1747;48.884;9.160;2022-09-17T15:44:11;16.10;99.90
3466;DHT22;1747;48.884;9.160;2022-09-17T15:46:39;16.40;99.90
3466;DHT22;1747;48.884;9.160;2022-09-17T15:49:25;16.70;99.90
3466;DHT22;1747;48.884;9.160;2022-09-17T15:51:54;17.10;99.90
3466;DHT22;1747;48.884;9.160;2022-09-17T15:54:28;17.60;99.90
3466;DHT22;1747;48.884;9.160;2022-09-17T15:56:57;18.10;99.90
3466;DHT22;1747;48.884;9.160;2022-09-17T15:59:27;18.40;99.90
3466;DHT22;1747;48.884;9.160;2022-09-17T16:01:56;18.80;99.90
3466;DHT22;1747;48.884;9.160;2022-09-17T16:04:29;19.10;99.90
3466;DHT22;1747;48.884;9.160;2022-09-17T16:07:27;18.90;99.90
3466;DHT22;1747;48.884;9.160;2022-09-17T16:09:55;18.70;99.80
3466;DHT22;1747;48.884;9.160;2022-09-17T16:12:24;18.50;99.70
3466;DHT22;1747;48.884;9.160;2022-09-17T16:14:54;18.30;99.90
3466;DHT22;1747;48.884;9.160;2022-09-17T16:17:27;18.30;99.90
3466;DHT22;1747;48.884;9.160;2022-09-17T16:19:57;18.10;99.90
3466;DHT22;1747;48.884;9.160;2022-09-17T16:22:26;18.00;99.70
3466;DHT22;1747;48.884;9.160;2022-09-17T16:24:54;17.80;99.90
3466;DHT22;1747;48.884;9.160;2022-09-17T16:27:23;17.70;99.90
3466;DHT22;1747;48.884;9.160;2022-09-17T16:29:51;17.50;99.90
3466;DHT22;1747;48.884;9.160;2022-09-17T16:32:20;17.30;99.90
3466;DHT22;1747;48.884;9.160;2022-09-17T16:34:47;17.10;99.90
3466;DHT22;1747;48.884;9.160;2022-09-17T16:37:19;16.80;99.90
3466;DHT22;1747;48.884;9.160;2022-09-17T16:39:47;16.60;99.90
3466;DHT22;1747;48.884;9.160;2022-09-17T16:42:14;16.40;99.90
3466;DHT22;1747;48.884;9.160;2022-09-17T16:44:41;16.30;99.90
3466;DHT22;1747;48.884;9.160;2022-09-17T16:47:08;16.20;99.90
3466;DHT22;1747;48.884;9.160;2022-09-17T16:49:35;16.00;99.90
3466;DHT22;1747;48.884;9.160;2022-09-17T16:52:02;15.90;99.90
3466;DHT22;1747;48.884;9.160;2022-09-17T16:54:29;15.80;99.90
3466;DHT22;1747;48.884;9.160;2022-09-17T16:56:57;15.80;99.90